DK-0025 weather

Rolfsted Flyveplads
South Denmark, Denmark

Public forecast

Using degrees Celsius for public forecast. Weather courtesy of forecast.io.

Closest aviation weather report (METAR) to Rolfsted Flyveplads

Report is more than 6 hours old.

Closest report is Odense Airport, 12.5 nm (23.1 km) NW. Retrieved 2020/05/26 15:50 UTC (11 hours ago):

EKOD 261550Z 04004KT 360V110 9999 FEW040 18/14 Q1034

Closest aviation forecast (TAF) to Rolfsted Flyveplads

Forecast is more than 12 hours old.

Closest forecast is S√łnderborg Airport, 34.7 nm (64.3 km) SW. Retrieved 2016/01/27 09:03 UTC (4 years ago):

TAF TAF EKSB 270856Z 2709/2721 23022KT 5000 -RA BR BKN008 TEMPO 2709/2721 24025G40KT 2000 RADZ BKN004